createdAt,value
2022-11-22T00:00:17.106Z,41.60
2022-11-22T00:02:44.073Z,44.90
2022-11-22T00:05:10.969Z,42.15
2022-11-22T00:07:40.658Z,42.92
2022-11-22T00:10:09.271Z,43.60
2022-11-22T00:12:36.052Z,45.28
2022-11-22T00:15:02.730Z,43.13
2022-11-22T00:17:29.213Z,42.60
2022-11-22T00:19:55.729Z,44.45
2022-11-22T00:22:22.308Z,43.70
2022-11-22T00:24:51.375Z,43.33
2022-11-22T00:27:18.699Z,43.50
2022-11-22T00:29:45.290Z,43.70
2022-11-22T00:32:11.839Z,44.47
2022-11-22T00:34:38.486Z,46.15
2022-11-22T00:37:04.998Z,43.90
2022-11-22T00:39:31.962Z,44.67
2022-11-22T00:41:58.813Z,44.95
2022-11-22T00:44:26.486Z,44.40
2022-11-22T00:46:53.251Z,46.15
2022-11-22T00:49:19.737Z,46.22
2022-11-22T00:51:46.247Z,45.58
2022-11-22T00:54:12.774Z,48.20
2022-11-22T00:56:39.284Z,44.60
2022-11-22T00:59:05.832Z,46.80
2022-11-22T01:01:32.415Z,44.85
2022-11-22T01:03:58.931Z,45.58
2022-11-22T01:06:25.459Z,49.78
2022-11-22T01:08:52.005Z,47.55
2022-11-22T01:11:19.014Z,47.03
2022-11-22T01:13:45.567Z,46.72
2022-11-22T01:16:13.272Z,45.58
2022-11-22T01:18:40.270Z,42.83
2022-11-22T01:21:06.975Z,44.63
2022-11-22T01:23:34.647Z,44.65
2022-11-22T01:26:01.922Z,45.20
2022-11-22T01:28:28.636Z,44.08
2022-11-22T01:30:55.351Z,44.05
2022-11-22T01:33:22.041Z,45.22
2022-11-22T01:35:48.834Z,44.33
2022-11-22T01:38:15.516Z,45.35
2022-11-22T01:40:42.057Z,44.42
2022-11-22T01:43:18.611Z,46.05
2022-11-22T01:45:48.066Z,44.70
2022-11-22T01:48:42.689Z,45.13
2022-11-22T01:51:15.437Z,44.87
2022-11-22T01:53:42.640Z,47.72
2022-11-22T01:56:14.700Z,46.80
2022-11-22T01:58:44.267Z,47.17
2022-11-22T02:01:11.333Z,46.03
2022-11-22T02:03:41.903Z,47.70
2022-11-22T02:06:08.602Z,46.15
2022-11-22T02:08:42.106Z,46.67
2022-11-22T02:11:10.990Z,47.28
2022-11-22T02:13:42.429Z,45.63
2022-11-22T02:16:10.248Z,45.28
2022-11-22T02:18:37.754Z,47.70
2022-11-22T02:21:05.007Z,45.28
2022-11-22T02:23:31.454Z,47.53
2022-11-22T02:25:59.966Z,46.60
2022-11-22T02:28:29.978Z,47.72
2022-11-22T02:30:56.549Z,49.17
2022-11-22T02:33:23.101Z,50.60
2022-11-22T02:35:50.424Z,48.92
2022-11-22T02:38:24.870Z,48.60
2022-11-22T02:41:02.096Z,50.58
2022-11-22T02:43:34.952Z,50.80
2022-11-22T02:46:06.884Z,50.45
2022-11-22T02:48:33.438Z,49.13
2022-11-22T02:51:00.224Z,50.83
2022-11-22T02:53:26.861Z,50.67
2022-11-22T02:55:53.425Z,50.20
2022-11-22T02:58:19.917Z,52.97
2022-11-22T03:00:46.464Z,49.35
2022-11-22T03:03:13.017Z,49.10
2022-11-22T03:05:39.538Z,50.88
2022-11-22T03:08:06.123Z,52.55
2022-11-22T03:10:32.701Z,51.72
2022-11-22T03:12:59.765Z,49.63
2022-11-22T03:15:26.598Z,52.08
2022-11-22T03:18:00.913Z,47.80
2022-11-22T03:20:28.078Z,49.05
2022-11-22T03:22:54.644Z,50.58
2022-11-22T03:25:21.929Z,48.13
2022-11-22T03:27:49.040Z,49.38
2022-11-22T03:30:15.953Z,48.28
2022-11-22T03:32:42.489Z,50.75
2022-11-22T03:35:09.790Z,49.72
2022-11-22T03:37:36.682Z,47.80
2022-11-22T03:40:04.380Z,48.40
2022-11-22T03:42:31.513Z,50.58
2022-11-22T03:44:58.041Z,47.20
2022-11-22T03:47:24.596Z,46.15
2022-11-22T03:49:51.164Z,46.03
2022-11-22T03:52:17.716Z,46.85
2022-11-22T03:54:44.269Z,47.17
2022-11-22T03:57:10.770Z,44.50
2022-11-22T03:59:37.280Z,43.58
2022-11-22T04:02:03.934Z,42.22
2022-11-22T04:04:30.466Z,43.95
2022-11-22T04:06:56.978Z,43.05
2022-11-22T04:09:23.706Z,44.20
2022-11-22T04:11:50.245Z,45.08
2022-11-22T04:14:35.394Z,43.78
2022-11-22T04:17:01.934Z,42.47
2022-11-22T04:19:28.902Z,43.67
2022-11-22T04:21:57.097Z,42.58
2022-11-22T04:24:41.880Z,43.55
2022-11-22T04:27:08.397Z,46.65
2022-11-22T04:29:34.921Z,43.55
2022-11-22T04:32:19.901Z,45.55
2022-11-22T04:34:46.490Z,44.60
2022-11-22T04:37:13.031Z,44.80
2022-11-22T04:39:39.549Z,44.95
2022-11-22T04:42:24.584Z,44.55
2022-11-22T04:47:38.262Z,41.75
2022-11-22T04:50:28.082Z,44.90
2022-11-22T04:52:58.237Z,44.28
2022-11-22T04:55:24.824Z,44.92
2022-11-22T04:57:57.561Z,47.05
2022-11-22T05:00:27.521Z,46.33
2022-11-22T05:02:54.096Z,46.25
2022-11-22T05:05:20.611Z,43.90
2022-11-22T05:07:47.160Z,43.78
2022-11-22T05:10:13.701Z,42.67
2022-11-22T05:12:43.421Z,46.08
2022-11-22T05:15:11.662Z,43.95
2022-11-22T05:17:38.539Z,45.10
2022-11-22T05:20:07.918Z,44.05
2022-11-22T05:22:53.654Z,45.13
2022-11-22T05:25:25.302Z,45.53
2022-11-22T05:27:54.213Z,43.22
2022-11-22T05:30:20.738Z,45.17
2022-11-22T05:32:47.252Z,44.30
2022-11-22T05:35:13.866Z,49.70
2022-11-22T05:37:40.391Z,46.67
2022-11-22T05:40:07.702Z,45.10
2022-11-22T05:42:34.480Z,47.55
2022-11-22T05:45:00.985Z,47.58
2022-11-22T05:47:27.461Z,49.55
2022-11-22T05:49:53.945Z,48.67
2022-11-22T05:52:20.468Z,49.55
2022-11-22T05:54:46.962Z,51.15
2022-11-22T05:57:13.509Z,50.75
2022-11-22T05:59:43.932Z,53.60
2022-11-22T06:02:11.024Z,53.10
2022-11-22T06:04:37.669Z,54.55
2022-11-22T06:07:09.540Z,54.58
2022-11-22T06:09:36.801Z,54.40
2022-11-22T06:12:03.525Z,53.05
2022-11-22T06:14:30.097Z,52.65
2022-11-22T06:16:56.752Z,54.50
2022-11-22T06:19:23.243Z,53.72
2022-11-22T06:21:49.844Z,53.70
2022-11-22T06:24:16.345Z,57.03
2022-11-22T06:26:42.832Z,56.35
2022-11-22T06:29:09.473Z,57.40
2022-11-22T06:31:37.037Z,58.67
2022-11-22T06:34:03.576Z,59.92
2022-11-22T06:36:32.191Z,62.13
2022-11-22T06:38:59.381Z,64.35
2022-11-22T06:41:28.472Z,64.07
2022-11-22T06:43:58.240Z,67.22
2022-11-22T06:46:26.586Z,65.00
2022-11-22T06:48:53.104Z,66.60
2022-11-22T06:51:28.582Z,65.90
2022-11-22T06:53:56.946Z,64.13
2022-11-22T06:56:26.258Z,66.22
2022-11-22T06:58:54.169Z,63.47
2022-11-22T07:01:22.064Z,65.13
2022-11-22T07:03:49.083Z,64.93
2022-11-22T07:06:17.316Z,61.47
2022-11-22T07:08:45.073Z,64.18
2022-11-22T07:11:17.504Z,63.42
2022-11-22T07:13:44.903Z,63.67
2022-11-22T07:16:14.150Z,62.88
2022-11-22T07:18:40.845Z,62.15
2022-11-22T07:21:13.128Z,61.25
2022-11-22T07:23:44.714Z,62.15
2022-11-22T07:26:12.848Z,61.22
2022-11-22T07:28:39.405Z,61.22
2022-11-22T07:31:08.551Z,63.25
2022-11-22T07:33:35.757Z,59.03
2022-11-22T07:36:24.805Z,58.17
2022-11-22T07:38:51.364Z,55.72
2022-11-22T07:41:19.485Z,56.72
2022-11-22T07:43:47.082Z,55.53
2022-11-22T07:46:23.804Z,55.60
2022-11-22T07:48:50.592Z,53.85
2022-11-22T07:51:17.444Z,54.72
2022-11-22T07:53:43.978Z,51.88
2022-11-22T07:56:11.093Z,51.45
2022-11-22T07:58:37.925Z,51.25
2022-11-22T08:01:09.197Z,53.22
2022-11-22T08:03:36.628Z,51.63
2022-11-22T08:06:05.241Z,52.67
2022-11-22T08:08:32.349Z,53.00
2022-11-22T08:10:58.933Z,51.78
2022-11-22T08:13:26.434Z,51.50
2022-11-22T08:15:54.820Z,48.30
2022-11-22T08:18:22.957Z,49.38
2022-11-22T08:20:49.489Z,48.00
2022-11-22T08:23:16.000Z,50.78
2022-11-22T08:25:42.475Z,45.88
2022-11-22T08:28:09.000Z,46.53
2022-11-22T08:30:35.484Z,45.15
2022-11-22T08:33:02.038Z,46.53
2022-11-22T08:35:29.086Z,45.13
2022-11-22T08:37:57.320Z,41.10
2022-11-22T08:40:24.107Z,41.72
2022-11-22T08:42:54.041Z,41.92
2022-11-22T08:45:20.613Z,42.08
2022-11-22T08:47:49.013Z,38.50
2022-11-22T08:50:17.123Z,38.33
2022-11-22T08:52:43.657Z,38.75
2022-11-22T08:55:10.207Z,37.53
2022-11-22T08:57:36.688Z,37.33
2022-11-22T09:00:04.999Z,34.30
2022-11-22T09:02:31.577Z,36.97
2022-11-22T09:04:58.053Z,34.92
2022-11-22T09:10:12.898Z,36.85
2022-11-22T09:12:43.532Z,33.13
2022-11-22T09:15:10.770Z,31.90
2022-11-22T09:17:37.314Z,33.20
2022-11-22T09:20:04.612Z,31.70
2022-11-22T09:22:31.884Z,32.33
2022-11-22T09:24:58.381Z,30.23
2022-11-22T09:27:24.908Z,31.52
2022-11-22T09:29:51.568Z,29.33
2022-11-22T09:32:18.234Z,28.30
2022-11-22T09:34:44.753Z,32.58
2022-11-22T09:37:11.260Z,28.80
2022-11-22T09:39:37.783Z,29.05
2022-11-22T09:42:36.521Z,29.67
2022-11-22T09:45:40.028Z,28.60
2022-11-22T09:48:36.316Z,29.85
2022-11-22T09:51:27.394Z,30.60
2022-11-22T09:54:24.616Z,27.90
2022-11-22T09:56:55.697Z,28.70
2022-11-22T09:59:28.299Z,31.08
2022-11-22T10:02:25.465Z,30.48
2022-11-22T10:05:00.200Z,31.42
2022-11-22T10:10:13.203Z,30.63
2022-11-22T10:12:55.189Z,29.95
2022-11-22T10:15:40.419Z,29.73
2022-11-22T10:18:32.041Z,30.85
2022-11-22T10:20:58.682Z,32.63
2022-11-22T10:23:26.693Z,30.63
2022-11-22T10:26:02.833Z,31.58
2022-11-22T10:28:39.189Z,30.33
2022-11-22T10:31:14.709Z,31.70
2022-11-22T10:33:45.019Z,32.30
2022-11-22T10:36:23.055Z,29.95
2022-11-22T10:38:52.533Z,35.35
2022-11-22T10:41:34.973Z,33.40
2022-11-22T10:44:32.445Z,36.55
2022-11-22T10:47:12.771Z,35.25
2022-11-22T10:50:03.510Z,36.97
2022-11-22T10:52:43.861Z,37.83
2022-11-22T10:55:29.077Z,40.15
2022-11-22T10:58:26.521Z,46.17
2022-11-22T11:01:14.198Z,43.03
2022-11-22T11:03:44.358Z,40.85
2022-11-22T11:06:29.494Z,41.78
2022-11-22T11:10:08.903Z,41.83
2022-11-22T11:12:20.869Z,40.75
2022-11-22T11:14:53.577Z,41.97
2022-11-22T11:17:35.101Z,43.22
2022-11-22T11:20:11.014Z,40.10
2022-11-22T11:23:12.377Z,42.70
2022-11-22T11:25:40.339Z,45.28
2022-11-22T11:28:24.578Z,43.25
2022-11-22T11:30:55.339Z,46.37
2022-11-22T11:33:29.732Z,44.10
2022-11-22T11:36:22.034Z,44.60
2022-11-22T11:38:48.580Z,46.25
2022-11-22T11:41:20.138Z,44.28
2022-11-22T11:43:47.013Z,45.58
2022-11-22T11:46:20.616Z,46.50
2022-11-22T11:48:48.667Z,40.10
2022-11-22T11:51:20.562Z,41.38
2022-11-22T11:53:51.731Z,41.45
2022-11-22T11:56:30.136Z,40.83
2022-11-22T11:58:59.111Z,38.67
2022-11-22T12:01:26.402Z,40.40
2022-11-22T12:04:03.043Z,43.20
2022-11-22T12:06:31.305Z,39.85
2022-11-22T12:08:59.538Z,42.08
2022-11-22T12:11:48.839Z,40.08
2022-11-22T12:14:20.522Z,40.75
2022-11-22T12:16:49.478Z,40.95
2022-11-22T12:19:30.903Z,41.42
2022-11-22T12:22:29.321Z,41.05
2022-11-22T12:28:23.241Z,42.40
2022-11-22T12:30:58.245Z,41.60
2022-11-22T12:33:36.361Z,41.28
2022-11-22T12:36:06.513Z,40.97
2022-11-22T12:38:39.314Z,40.88
2022-11-22T12:41:11.865Z,40.83
2022-11-22T12:43:48.736Z,40.50
2022-11-22T12:46:26.065Z,39.30
2022-11-22T12:48:23.306Z,42.33
2022-11-22T12:48:56.858Z,40.42
2022-11-22T12:51:26.651Z,41.47
2022-11-22T12:53:59.517Z,41.85
2022-11-22T12:56:33.621Z,42.60
2022-11-22T13:01:42.018Z,37.08
2022-11-22T13:04:11.369Z,37.50
2022-11-22T13:07:04.790Z,39.95
2022-11-22T13:09:47.188Z,39.63
2022-11-22T13:12:19.519Z,40.92
2022-11-22T13:14:52.048Z,37.88
2022-11-22T13:17:18.653Z,36.47
2022-11-22T13:19:59.698Z,39.83
2022-11-22T13:22:49.836Z,37.38
2022-11-22T13:25:25.481Z,36.30
2022-11-22T13:27:53.633Z,35.22
2022-11-22T13:30:25.881Z,34.72
2022-11-22T13:32:55.167Z,34.45
2022-11-22T13:35:30.385Z,33.15
2022-11-22T13:38:02.750Z,33.22
2022-11-22T13:41:01.540Z,31.88
2022-11-22T13:43:32.822Z,31.90
2022-11-22T13:46:01.866Z,32.83
2022-11-22T13:48:40.397Z,32.83
2022-11-22T13:51:15.497Z,32.90
2022-11-22T13:53:47.101Z,33.25
2022-11-22T13:56:16.648Z,31.83
2022-11-22T13:58:50.430Z,31.23
2022-11-22T14:01:33.290Z,31.25
2022-11-22T14:04:21.093Z,29.98
2022-11-22T14:06:48.957Z,29.88
2022-11-22T14:09:53.797Z,29.25
2022-11-22T14:12:29.349Z,32.83
2022-11-22T14:15:17.593Z,31.08
2022-11-22T14:17:44.147Z,32.20
2022-11-22T14:20:28.405Z,30.05
2022-11-22T14:23:01.400Z,30.33
2022-11-22T14:25:38.569Z,31.10
2022-11-22T14:28:38.805Z,31.83
2022-11-22T14:31:33.325Z,30.40
2022-11-22T14:34:18.047Z,30.90
2022-11-22T14:36:46.711Z,31.27
2022-11-22T14:39:44.253Z,29.40
2022-11-22T14:42:47.330Z,31.35
2022-11-22T14:45:32.674Z,29.92
2022-11-22T14:48:11.817Z,30.30
2022-11-22T14:50:38.257Z,30.83
2022-11-22T14:53:23.053Z,29.75
2022-11-22T14:56:04.156Z,31.45
2022-11-22T14:58:33.985Z,31.38
2022-11-22T15:01:18.930Z,31.92
2022-11-22T15:09:15.366Z,31.27
2022-11-22T15:09:28.317Z,32.22
2022-11-22T15:10:41.987Z,30.25
2022-11-22T15:13:17.696Z,31.63
2022-11-22T15:59:44.178Z,34.70
2022-11-22T16:02:22.617Z,35.00
2022-11-22T16:06:10.132Z,35.63
2022-11-22T16:07:48.699Z,36.33
2022-11-22T16:10:33.289Z,36.35
2022-11-22T16:13:11.228Z,35.70
2022-11-22T16:15:38.036Z,35.08
2022-11-22T16:18:10.377Z,36.13
2022-11-22T16:20:38.748Z,33.97
2022-11-22T16:23:11.949Z,34.78
2022-11-22T16:25:40.495Z,36.20
2022-11-22T16:28:29.225Z,35.28
2022-11-22T16:30:58.051Z,36.63
2022-11-22T16:33:24.804Z,35.63
2022-11-22T16:35:59.613Z,36.00
2022-11-22T16:38:27.227Z,33.25
2022-11-22T16:40:56.894Z,35.05
2022-11-22T16:43:25.605Z,35.60
2022-11-22T16:45:52.475Z,34.22
2022-11-22T16:48:31.909Z,34.15
2022-11-22T16:51:07.799Z,34.67
2022-11-22T16:53:46.786Z,34.47
2022-11-22T16:56:21.113Z,34.38
2022-11-22T16:58:49.404Z,34.60
2022-11-22T17:01:19.057Z,33.63
2022-11-22T17:03:47.413Z,32.88
2022-11-22T17:06:19.585Z,33.28
2022-11-22T17:08:47.500Z,33.95
2022-11-22T17:11:17.204Z,35.42
2022-11-22T17:13:44.550Z,34.17
2022-11-22T17:16:12.273Z,34.60
2022-11-22T17:18:39.630Z,35.13
2022-11-22T17:21:34.467Z,32.00
2022-11-22T17:24:17.265Z,33.97
2022-11-22T17:26:43.807Z,33.90
2022-11-22T17:29:18.408Z,33.33
2022-11-22T17:31:56.837Z,35.22
2022-11-22T17:34:23.388Z,34.70
2022-11-22T17:36:49.886Z,34.88
2022-11-22T17:39:16.418Z,33.53
2022-11-22T17:41:42.965Z,33.90
2022-11-22T17:44:15.642Z,33.13
2022-11-22T17:46:44.034Z,33.83
2022-11-22T17:49:15.652Z,35.05
2022-11-22T17:51:42.731Z,34.45
2022-11-22T17:54:09.401Z,34.22
2022-11-22T17:56:37.265Z,34.20
2022-11-22T17:59:04.253Z,33.15
2022-11-22T18:01:30.953Z,32.95
2022-11-22T18:03:57.590Z,32.58
2022-11-22T18:06:26.170Z,33.30
2022-11-22T18:08:52.717Z,34.30
2022-11-22T18:11:19.245Z,33.70
2022-11-22T18:13:45.914Z,32.78
2022-11-22T18:16:15.393Z,34.55
2022-11-22T18:18:56.827Z,34.08
2022-11-22T18:21:24.645Z,33.80
2022-11-22T18:23:51.456Z,34.30
2022-11-22T18:31:52.888Z,32.22
2022-11-22T18:34:20.501Z,32.35
2022-11-22T18:37:04.308Z,32.72
2022-11-22T18:39:34.744Z,33.17
2022-11-22T18:42:01.628Z,32.47
2022-11-22T18:44:28.219Z,32.60
2022-11-22T18:46:54.988Z,32.05
2022-11-22T18:49:21.550Z,32.33
2022-11-22T18:51:48.099Z,31.23
2022-11-22T18:54:14.761Z,33.05
2022-11-22T18:56:41.369Z,33.83
2022-11-22T18:59:12.595Z,33.70
2022-11-22T19:01:39.740Z,33.05
2022-11-22T19:04:06.339Z,32.90
2022-11-22T19:06:32.836Z,32.47
2022-11-22T19:08:59.448Z,34.97
2022-11-22T19:11:28.523Z,32.78
2022-11-22T19:13:55.019Z,34.90
2022-11-22T19:16:22.988Z,34.78
2022-11-22T19:18:50.350Z,35.47
2022-11-22T19:21:20.189Z,32.83
2022-11-22T19:23:47.573Z,34.03
2022-11-22T19:26:16.333Z,33.70
2022-11-22T19:28:43.095Z,33.72
2022-11-22T19:31:12.315Z,34.63
2022-11-22T19:33:39.289Z,35.13
2022-11-22T19:36:15.138Z,35.55
2022-11-22T19:38:42.705Z,35.38
2022-11-22T19:41:20.986Z,36.33
2022-11-22T19:43:48.940Z,39.13
2022-11-22T19:46:16.368Z,38.33
2022-11-22T19:48:47.217Z,36.70
2022-11-22T19:51:15.455Z,36.85
2022-11-22T19:53:42.422Z,37.63
2022-11-22T19:56:19.483Z,37.92
2022-11-22T19:58:53.614Z,37.95
2022-11-22T20:01:21.826Z,37.17
2022-11-22T20:03:52.612Z,39.85
2022-11-22T20:06:19.893Z,36.65
2022-11-22T20:08:46.533Z,38.30
2022-11-22T20:11:16.206Z,37.60
2022-11-22T20:13:44.854Z,37.83
2022-11-22T20:16:17.382Z,39.35
2022-11-22T20:18:43.899Z,38.33
2022-11-22T20:21:11.203Z,38.30
2022-11-22T20:23:38.554Z,39.25
2022-11-22T20:26:10.346Z,39.10
2022-11-22T20:28:41.241Z,37.00
2022-11-22T20:31:08.633Z,38.83
2022-11-22T20:33:37.642Z,38.25
2022-11-22T20:36:06.419Z,38.58
2022-11-22T20:38:34.487Z,41.88
2022-11-22T20:41:02.966Z,41.80
2022-11-22T20:43:33.741Z,40.58
2022-11-22T20:46:06.488Z,40.92
2022-11-22T20:48:34.268Z,41.25
2022-11-22T20:51:02.902Z,41.00
2022-11-22T20:53:29.901Z,43.42
2022-11-22T20:55:56.542Z,44.05
2022-11-22T20:58:24.715Z,42.75
2022-11-22T21:00:51.467Z,45.75
2022-11-22T21:03:18.185Z,45.08
2022-11-22T21:05:46.427Z,46.28
2022-11-22T21:08:13.227Z,49.55
2022-11-22T21:10:39.764Z,47.65
2022-11-22T21:13:06.273Z,49.80
2022-11-22T21:15:32.819Z,50.65
2022-11-22T21:18:23.445Z,52.55
2022-11-22T21:20:46.385Z,47.42
2022-11-22T21:23:12.889Z,50.60
2022-11-22T21:25:39.746Z,52.30
2022-11-22T21:28:06.577Z,52.67
2022-11-22T21:30:33.103Z,51.63
2022-11-22T21:32:59.615Z,50.60
2022-11-22T21:35:26.165Z,55.22
2022-11-22T21:37:54.362Z,50.17
2022-11-22T21:40:20.885Z,52.65
2022-11-22T21:42:47.390Z,55.63
2022-11-22T21:45:13.965Z,50.53
2022-11-22T21:47:40.482Z,53.17
2022-11-22T21:50:11.433Z,54.85
2022-11-22T21:52:38.428Z,50.55
2022-11-22T21:55:05.500Z,54.13
2022-11-22T21:57:31.987Z,50.63
2022-11-22T21:59:58.489Z,44.20
2022-11-22T22:02:24.980Z,50.13
2022-11-22T22:04:51.475Z,50.20
2022-11-22T22:07:44.829Z,51.30
2022-11-22T22:10:05.538Z,50.42
2022-11-22T22:12:32.057Z,50.88
2022-11-22T22:14:58.569Z,48.13
2022-11-22T22:17:25.093Z,49.47
2022-11-22T22:19:52.434Z,50.17
2022-11-22T22:22:19.111Z,51.72
2022-11-22T22:24:45.614Z,50.35
2022-11-22T22:27:12.165Z,50.17
2022-11-22T22:29:38.677Z,50.45
2022-11-22T22:32:10.429Z,49.45
2022-11-22T22:34:37.369Z,49.22
2022-11-22T22:37:03.893Z,49.30
2022-11-22T22:39:30.993Z,50.38
2022-11-22T22:41:57.592Z,49.28
2022-11-22T22:44:24.142Z,48.13
2022-11-22T22:46:50.648Z,47.70
2022-11-22T22:49:17.160Z,47.38
2022-11-22T22:51:43.694Z,47.67
2022-11-22T22:54:10.837Z,50.75
2022-11-22T22:56:37.336Z,49.35
2022-11-22T22:59:05.195Z,48.88
2022-11-22T23:01:32.033Z,47.90
2022-11-22T23:04:01.225Z,46.72
2022-11-22T23:06:30.372Z,47.25
2022-11-22T23:08:57.873Z,44.95
2022-11-22T23:11:45.507Z,44.78
2022-11-22T23:14:13.264Z,46.53
2022-11-22T23:16:40.144Z,47.60
2022-11-22T23:19:07.689Z,44.97
2022-11-22T23:21:34.942Z,43.15
2022-11-22T23:24:01.966Z,45.33
2022-11-22T23:26:28.505Z,46.13
2022-11-22T23:28:55.058Z,44.30
2022-11-22T23:31:21.961Z,44.00
2022-11-22T23:33:48.496Z,41.88
2022-11-22T23:36:16.772Z,42.30
2022-11-22T23:38:43.762Z,43.38
2022-11-22T23:41:15.853Z,42.08
2022-11-22T23:43:43.101Z,40.97
2022-11-22T23:46:16.271Z,40.65
2022-11-22T23:48:47.331Z,41.42
2022-11-22T23:51:15.912Z,42.53
2022-11-22T23:53:42.506Z,40.67
2022-11-22T23:56:11.764Z,40.28
2022-11-22T23:58:38.696Z,38.35
